Time;durP1;ratioP1;P1;durP2;ratioP2;P2;SDS_P1;SDS_P2;PMS_P1;PMS_P2;Temp;Humidity;BMP_temperature;BMP_pressure;BME280_temperature;BME280_humidity;BME280_pressure;Samples;Min_cycle;Max_cycle;Signal;HPM_P1;HPM_P2
2023/07/20 00:03:16;;;;;;;2.25;1.80;;;;;;;21.07;99.33;99292.50;6365561;27;20064;-70
2023/07/20 00:06:17;;;;;;;1.75;1.50;;;;;;;21.12;99.16;99296.25;6371808;27;20043;-69
2023/07/20 00:09:17;;;;;;;3.53;1.90;;;;;;;21.10;99.14;99298.25;6374840;27;20632;-69
2023/07/20 00:12:18;;;;;;;2.27;1.67;;;;;;;21.06;100.00;99289.00;6375678;27;20055;-69
2023/07/20 00:15:19;;;;;;;2.47;1.73;;;;;;;21.06;100.00;99296.16;6373415;27;20105;-69
2023/07/20 00:18:21;;;;;;;4.40;1.97;;;;;;;20.99;100.00;99289.94;6375250;27;20429;-70
2023/07/20 00:21:21;;;;;;;;;;;;;;;20.95;100.00;99294.75;6363777;27;20058;-69
2023/07/20 00:24:22;;;;;;;3.38;1.55;;;;;;;20.86;100.00;99295.84;6353863;27;19923;-69
2023/07/20 00:27:25;;;;;;;3.10;2.10;;;;;;;20.87;100.00;99300.13;6365861;27;20476;-69
2023/07/20 00:30:26;;;;;;;2.55;1.85;;;;;;;20.73;100.00;99299.91;6373177;27;20383;-70
2023/07/20 00:33:27;;;;;;;3.03;2.10;;;;;;;20.72;100.00;99294.78;6374884;27;20058;-69
2023/07/20 00:36:28;;;;;;;1.67;1.57;;;;;;;20.64;100.00;99290.34;6370400;27;20043;-69
2023/07/20 00:39:29;;;;;;;2.80;1.93;;;;;;;20.64;100.00;99276.28;6366092;27;20049;-69
2023/07/20 00:42:30;;;;;;;3.07;2.10;;;;;;;20.77;100.00;99283.63;6349839;27;20048;-70
2023/07/20 00:45:33;;;;;;;2.37;2.17;;;;;;;20.57;100.00;99278.81;6373277;27;20043;-70
2023/07/20 00:48:37;;;;;;;3.22;2.10;;;;;;;20.51;100.00;99293.56;6353646;27;20329;-70
2023/07/20 00:51:40;;;;;;;3.65;2.05;;;;;;;20.42;100.00;99297.25;6368348;27;20043;-69
2023/07/20 00:54:41;;;;;;;2.92;2.05;;;;;;;20.48;100.00;99293.91;6378606;27;20046;-70
2023/07/20 00:57:42;;;;;;;2.67;1.80;;;;;;;20.52;100.00;99291.75;6373237;27;20047;-69
2023/07/20 01:00:47;;;;;;;3.73;2.20;;;;;;;20.47;100.00;99281.69;6370573;27;20280;-72
2023/07/20 01:03:50;;;;;;;2.58;2.15;;;;;;;20.33;100.00;99282.44;6374677;27;20096;-72
2023/07/20 01:07:05;;;;;;;4.40;2.20;;;;;;;20.24;100.00;99272.88;6367368;27;20099;-72
2023/07/20 01:10:14;;;;;;;4.38;2.10;;;;;;;20.35;100.00;99280.44;6381779;27;20054;-72
2023/07/20 01:13:21;;;;;;;2.50;2.15;;;;;;;20.31;100.00;99284.44;6351027;27;20093;-72
2023/07/20 01:16:22;;;;;;;4.15;2.05;;;;;;;20.30;100.00;99272.16;6361870;27;20050;-72
2023/07/20 01:19:22;;;;;;;3.53;2.13;;;;;;;20.30;100.00;99265.06;6374441;27;20151;-72
2023/07/20 01:23:16;;;;;;;3.57;2.40;;;;;;;20.26;100.00;99269.06;6373773;27;20083;-72
2023/07/20 01:26:44;;;;;;;2.90;2.17;;;;;;;20.09;100.00;99259.56;6373891;27;20501;-72
2023/07/20 01:30:16;;;;;;;2.83;1.83;;;;;;;20.10;100.00;99253.28;6366342;27;20086;-72
2023/07/20 01:33:19;;;;;;;3.05;2.30;;;;;;;20.01;100.00;99255.13;6376554;27;20050;-72
2023/07/20 01:36:22;;;;;;;4.40;1.92;;;;;;;20.01;100.00;99256.97;6369551;27;20495;-72
2023/07/20 01:39:26;;;;;;;2.80;2.03;;;;;;;20.07;100.00;99245.66;6372568;27;20043;-72
2023/07/20 01:42:29;;;;;;;2.95;1.85;;;;;;;20.06;100.00;99244.03;6372443;27;20052;-72
2023/07/20 01:45:32;;;;;;;4.28;2.20;;;;;;;20.16;100.00;99238.50;6372018;27;20039;-69
2023/07/20 01:48:33;;;;;;;4.05;1.80;;;;;;;20.15;100.00;99219.13;6373072;27;20047;-69
2023/07/20 01:51:33;;;;;;;2.73;2.00;;;;;;;20.14;100.00;99222.81;6364162;27;20054;-69
2023/07/20 01:54:34;;;;;;;3.10;2.13;;;;;;;20.02;100.00;99210.97;6346310;28;20096;-69
2023/07/20 01:57:35;;;;;;;4.67;2.20;;;;;;;20.09;100.00;99230.44;6349434;27;20481;-69
2023/07/20 02:00:39;;;;;;;3.77;2.00;;;;;;;20.05;100.00;99227.31;6370944;27;20509;-69
2023/07/20 02:03:40;;;;;;;2.17;1.77;;;;;;;20.08;100.00;99228.78;6372290;27;20047;-69
2023/07/20 02:06:41;;;;;;;2.77;1.87;;;;;;;19.87;100.00;99235.53;6358306;27;20042;-69
2023/07/20 02:09:41;;;;;;;3.30;2.03;;;;;;;19.78;100.00;99241.03;6372560;27;20141;-70
2023/07/20 02:12:42;;;;;;;3.60;1.70;;;;;;;19.75;100.00;99242.22;6365493;27;20054;-70
2023/07/20 02:15:43;;;;;;;3.03;1.63;;;;;;;19.75;100.00;99244.84;6366588;27;20129;-69
2023/07/20 02:18:44;;;;;;;1.97;1.73;;;;;;;19.61;100.00;99238.44;6371091;27;20129;-72
2023/07/20 02:21:47;;;;;;;3.43;2.13;;;;;;;19.67;100.00;99235.09;6370070;27;20055;-72
2023/07/20 02:24:48;;;;;;;2.65;1.58;;;;;;;19.60;100.00;99228.00;6372593;27;20490;-72
2023/07/20 02:27:48;;;;;;;2.40;1.63;;;;;;;19.71;100.00;99233.78;6371270;27;20057;-72
2023/07/20 02:30:49;;;;;;;3.20;1.83;;;;;;;19.72;100.00;99218.72;6371793;27;20047;-73
2023/07/20 02:33:50;;;;;;;5.80;2.00;;;;;;;19.63;100.00;99232.97;6372972;27;20065;-72
2023/07/20 02:36:51;;;;;;;8.30;1.93;;;;;;;19.44;100.00;99236.84;6390919;27;20042;-72
2023/07/20 02:39:51;;;;;;;1.97;1.63;;;;;;;19.59;100.00;99237.78;6394306;27;20147;-72
2023/07/20 02:42:52;;;;;;;3.10;2.17;;;;;;;19.60;100.00;99246.53;6367351;27;20486;-72
2023/07/20 02:45:55;;;;;;;2.43;1.80;;;;;;;19.61;100.00;99243.72;6345825;28;20043;-72
2023/07/20 02:48:58;;;;;;;2.58;1.85;;;;;;;19.65;100.00;99244.22;6354308;27;20051;-70
2023/07/20 02:51:59;;;;;;;3.33;2.13;;;;;;;19.64;100.00;99251.31;6370819;27;20047;-70
2023/07/20 02:55:02;;;;;;;5.27;2.00;;;;;;;19.63;100.00;99251.50;6376292;27;20141;-69
2023/07/20 02:58:03;;;;;;;2.58;1.95;;;;;;;19.67;100.00;99250.16;6376776;27;20043;-69
2023/07/20 03:01:04;;;;;;;2.93;1.93;;;;;;;19.65;100.00;99250.31;6370054;27;20047;-69
2023/07/20 03:04:05;;;;;;;2.87;1.87;;;;;;;19.69;100.00;99267.50;6371376;27;20193;-69
2023/07/20 03:07:06;;;;;;;3.27;1.70;;;;;;;19.80;100.00;99261.03;6363115;27;20047;-69
2023/07/20 03:10:09;;;;;;;3.50;1.80;;;;;;;19.78;100.00;99252.44;6355521;27;20074;-69
2023/07/20 03:13:10;;;;;;;2.92;2.03;;;;;;;19.72;100.00;99256.59;6368080;27;20055;-69
2023/07/20 03:16:12;;;;;;;2.17;1.80;;;;;;;19.65;100.00;99245.03;6368419;27;20043;-70
2023/07/20 03:19:13;;;;;;;3.58;2.00;;;;;;;19.68;100.00;99249.13;6370291;27;20150;-70
2023/07/20 03:22:13;;;;;;;2.93;2.10;;;;;;;19.72;100.00;99251.28;6370203;27;20436;-70
2023/07/20 03:25:14;;;;;;;2.70;1.70;;;;;;;19.75;100.00;99260.72;6365829;27;20077;-69
2023/07/20 03:28:16;;;;;;;2.07;1.63;;;;;;;19.74;100.00;99256.41;6351945;27;20043;-70
2023/07/20 03:31:19;;;;;;;2.65;1.77;;;;;;;19.73;100.00;99266.19;6365007;27;20043;-70
2023/07/20 03:34:22;;;;;;;2.72;1.85;;;;;;;19.78;100.00;99259.56;6357785;27;20441;-69
2023/07/20 03:37:22;;;;;;;4.50;2.13;;;;;;;19.94;100.00;99259.47;6402415;27;20055;-70
2023/07/20 03:40:24;;;;;;;1.77;1.60;;;;;;;19.96;100.00;99265.44;6371432;27;20047;-69
2023/07/20 03:43:26;;;;;;;2.53;1.80;;;;;;;20.02;100.00;99261.28;6373005;27;20059;-70
2023/07/20 03:46:27;;;;;;;2.97;2.15;;;;;;;19.91;100.00;99265.09;6369600;27;20043;-69
2023/07/20 03:49:28;;;;;;;4.83;1.87;;;;;;;19.99;100.00;99266.91;6368109;27;20047;-69
2023/07/20 03:52:29;;;;;;;3.37;1.90;;;;;;;20.08;100.00;99257.94;6359935;27;20051;-70
2023/07/20 03:55:30;;;;;;;6.00;2.20;;;;;;;20.07;100.00;99259.72;6374974;27;20046;-69
2023/07/20 03:58:31;;;;;;;3.55;2.20;;;;;;;20.14;100.00;99254.59;6373892;27;20100;-69
2023/07/20 04:01:36;;;;;;;2.73;2.07;;;;;;;20.14;100.00;99259.88;6374898;27;20072;-70
2023/07/20 04:04:37;;;;;;;3.00;1.90;;;;;;;20.20;100.00;99258.34;6374999;27;20039;-69
2023/07/20 04:07:38;;;;;;;2.20;1.87;;;;;;;20.22;100.00;99256.34;6379405;27;20043;-70
2023/07/20 04:10:39;;;;;;;3.20;2.63;;;;;;;20.24;100.00;99259.63;6368925;27;20585;-70
2023/07/20 04:13:42;;;;;;;3.90;2.00;;;;;;;20.23;100.00;99264.09;6356392;27;20485;-70
2023/07/20 04:16:46;;;;;;;8.63;2.30;;;;;;;20.22;100.00;99256.34;6353013;27;20058;-69
2023/07/20 04:19:47;;;;;;;3.80;2.17;;;;;;;20.22;100.00;99258.97;6355768;27;20052;-70
2023/07/20 04:22:51;;;;;;;4.43;2.27;;;;;;;20.38;100.00;99260.72;6382831;27;20046;-70
2023/07/20 04:25:52;;;;;;;3.55;2.35;;;;;;;20.42;100.00;99262.81;6375702;27;20084;-70
2023/07/20 04:28:53;;;;;;;3.67;2.38;;;;;;;20.41;100.00;99271.78;6372741;27;20051;-69
2023/07/20 04:31:56;;;;;;;3.63;2.13;;;;;;;20.33;100.00;99269.19;6364440;27;20459;-69
2023/07/20 04:34:57;;;;;;;2.42;1.95;;;;;;;20.58;100.00;99282.28;6373649;27;20083;-69
2023/07/20 04:37:57;;;;;;;4.47;2.37;;;;;;;20.71;100.00;99280.72;6373384;27;20047;-69
2023/07/20 04:41:00;;;;;;;3.87;2.20;;;;;;;20.66;100.00;99283.06;6369403;27;20075;-69
2023/07/20 04:44:01;;;;;;;5.05;2.47;;;;;;;20.70;100.00;99273.75;6371818;27;20050;-69
2023/07/20 04:47:03;;;;;;;2.78;2.30;;;;;;;20.81;100.00;99277.78;6370703;27;20180;-69
2023/07/20 04:50:04;;;;;;;5.25;2.17;;;;;;;20.98;100.00;99282.97;6373267;27;20047;-69
2023/07/20 04:53:05;;;;;;;3.78;2.55;;;;;;;21.07;100.00;99271.28;6372797;27;20046;-70
2023/07/20 04:56:08;;;;;;;4.00;2.30;;;;;;;20.88;100.00;99267.31;6367147;27;20043;-70
2023/07/20 04:59:09;;;;;;;3.90;2.35;;;;;;;21.00;100.00;99265.88;6363765;27;20603;-69
2023/07/20 05:02:12;;;;;;;2.50;2.10;;;;;;;21.08;100.00;99270.25;6367427;27;20043;-70
2023/07/20 05:05:15;;;;;;;3.60;2.10;;;;;;;21.19;100.00;99267.19;6371728;27;20059;-70
2023/07/20 05:08:17;;;;;;;4.00;2.42;;;;;;;21.44;100.00;99272.25;6386283;27;20391;-70
2023/07/20 05:11:22;;;;;;;3.47;2.40;;;;;;;21.50;100.00;99280.31;6376501;27;20077;-70
2023/07/20 05:14:23;;;;;;;3.25;2.08;;;;;;;21.68;100.00;99279.09;6394038;27;20052;-70
2023/07/20 05:17:24;;;;;;;6.20;2.20;;;;;;;21.73;100.00;99276.72;6349665;27;20407;-70
2023/07/20 05:20:25;;;;;;;6.70;2.25;;;;;;;21.57;100.00;99272.44;6369194;27;20053;-70
2023/07/20 05:23:28;;;;;;;2.77;2.00;;;;;;;21.89;100.00;99267.75;6360747;27;20051;-69
2023/07/20 05:26:31;;;;;;;2.25;2.00;;;;;;;21.73;99.76;99274.91;6375762;27;20554;-70
2023/07/20 05:29:32;;;;;;;2.97;2.05;;;;;;;22.00;99.57;99275.22;6385391;27;20502;-70
2023/07/20 05:32:33;;;;;;;4.22;2.13;;;;;;;22.03;99.88;99279.31;6370062;27;20082;-71
2023/07/20 05:35:36;;;;;;;3.80;2.20;;;;;;;22.18;97.55;99285.44;6358077;27;20092;-70
2023/07/20 05:38:37;;;;;;;4.38;2.55;;;;;;;22.12;96.52;99308.25;6364833;27;20053;-70
2023/07/20 05:41:38;;;;;;;4.73;2.20;;;;;;;22.23;96.29;99299.00;6368210;27;20047;-69
2023/07/20 05:44:40;;;;;;;2.10;1.67;;;;;;;22.49;96.91;99292.34;6364246;27;20119;-70
2023/07/20 05:47:44;;;;;;;5.07;1.92;;;;;;;22.50;93.28;99292.13;6366902;27;20047;-69
2023/07/20 05:50:44;;;;;;;6.68;2.05;;;;;;;22.71;92.59;99301.13;6373118;27;20047;-70
2023/07/20 05:53:45;;;;;;;4.13;1.87;;;;;;;22.88;92.66;99297.19;6369828;27;20104;-70
2023/07/20 05:56:46;;;;;;;3.33;2.00;;;;;;;22.88;91.77;99299.03;6369928;27;20096;-70
2023/07/20 05:59:47;;;;;;;2.90;1.90;;;;;;;23.05;90.06;99300.44;6364115;27;20075;-70
2023/07/20 06:02:48;;;;;;;4.47;2.43;;;;;;;23.05;90.14;99295.09;6368342;27;20479;-70
2023/07/20 06:05:49;;;;;;;2.53;2.03;;;;;;;23.39;91.66;99296.19;6365931;27;20047;-69
2023/07/20 06:08:49;;;;;;;3.10;2.40;;;;;;;23.40;86.85;99297.00;6367388;27;20051;-71
2023/07/20 06:11:50;;;;;;;8.27;2.53;;;;;;;23.42;86.82;99300.28;6368561;27;20047;-71
2023/07/20 06:14:54;;;;;;;3.53;2.33;;;;;;;23.36;87.42;99307.19;6367314;27;20082;-71
2023/07/20 06:17:56;;;;;;;4.60;2.42;;;;;;;23.45;88.78;99306.06;6371248;27;20501;-71
2023/07/20 06:33:43;;;;;;;6.50;2.28;;;;;;;23.74;87.25;99320.13;6319904;27;20412;-72
2023/07/20 06:36:44;;;;;;;8.73;2.83;;;;;;;23.99;81.51;99331.16;6326986;28;20138;-74
2023/07/20 06:39:45;;;;;;;5.78;2.90;;;;;;;24.25;80.47;99333.06;6342304;28;20075;-74
2023/07/20 06:42:46;;;;;;;4.45;2.65;;;;;;;24.30;78.92;99338.63;6343685;28;20047;-74
2023/07/20 06:45:53;;;;;;;6.77;2.53;;;;;;;24.39;77.42;99339.28;6343590;28;20055;-74
2023/07/20 06:48:54;;;;;;;5.13;2.80;;;;;;;24.55;76.25;99335.47;6340434;28;20078;-74
2023/07/20 06:51:56;;;;;;;4.80;2.90;;;;;;;24.57;77.88;99329.94;6324774;28;20093;-74
2023/07/20 06:54:57;;;;;;;5.63;3.03;;;;;;;24.69;76.00;99315.78;6322469;28;20415;-74
2023/07/20 06:58:00;;;;;;;4.50;2.87;;;;;;;24.74;74.05;99316.00;6325461;28;20124;-74
2023/07/20 07:01:10;;;;;;;7.13;3.25;;;;;;;24.90;75.82;99309.44;6327075;28;20078;-75
2023/07/20 07:04:11;;;;;;;8.07;2.65;;;;;;;24.85;74.98;99295.91;6329918;28;20126;-74
2023/07/20 07:07:14;;;;;;;2.83;2.20;;;;;;;24.91;75.04;99310.25;6337100;28;20048;-74
2023/07/20 07:10:18;;;;;;;6.13;2.42;;;;;;;24.98;75.18;99302.25;6337233;28;20062;-74
2023/07/20 07:13:19;;;;;;;4.82;2.78;;;;;;;25.30;75.23;99309.44;6340539;28;20097;-74
2023/07/20 07:16:22;;;;;;;3.65;2.85;;;;;;;25.29;74.36;99297.13;6342796;28;20054;-74
2023/07/20 07:19:24;;;;;;;4.38;2.45;;;;;;;25.64;72.81;99299.53;6339932;28;20051;-74
2023/07/20 07:22:25;;;;;;;4.63;2.80;;;;;;;25.76;70.90;99304.19;6329071;28;20098;-74
2023/07/20 07:25:28;;;;;;;4.13;2.70;;;;;;;25.68;71.49;99315.97;6324519;28;20080;-74
2023/07/20 07:28:29;;;;;;;5.57;2.90;;;;;;;25.82;71.21;99314.03;6317522;28;20044;-74
2023/07/20 07:31:30;;;;;;;12.70;3.37;;;;;;;25.69;72.93;99320.25;6339708;28;20064;-74
2023/07/20 07:34:34;;;;;;;4.07;2.85;;;;;;;25.89;70.89;99329.06;6307037;28;20052;-74
2023/07/20 07:37:35;;;;;;;6.28;2.92;;;;;;;26.16;70.34;99318.25;6324531;28;20051;-72
2023/07/20 07:40:37;;;;;;;5.00;2.73;;;;;;;26.19;68.64;99331.22;6323411;28;20052;-74
2023/07/20 07:43:40;;;;;;;7.10;3.58;;;;;;;26.23;68.96;99320.91;6325050;28;20048;-74
2023/07/20 07:46:41;;;;;;;7.18;2.75;;;;;;;26.45;71.36;99313.38;6311975;28;20080;-74
2023/07/20 07:49:42;;;;;;;5.32;2.92;;;;;;;26.76;67.17;99314.44;6324195;28;20407;-73
2023/07/20 07:52:43;;;;;;;9.23;3.35;;;;;;;26.71;67.12;99321.25;6311421;28;20127;-74
2023/07/20 07:55:44;;;;;;;5.40;3.30;;;;;;;27.04;66.14;99320.19;6324013;28;20066;-74
2023/07/20 07:58:45;;;;;;;5.70;2.67;;;;;;;27.28;67.21;99325.78;6323735;28;20356;-74
2023/07/20 08:01:45;;;;;;;7.23;3.20;;;;;;;27.39;66.32;99324.25;6318292;28;20388;-74
2023/07/20 08:04:51;;;;;;;7.97;2.95;;;;;;;27.59;67.48;99324.03;6320689;28;20086;-74
2023/07/20 08:07:54;;;;;;;5.95;2.75;;;;;;;27.76;65.41;99321.56;6317726;28;20051;-74
2023/07/20 08:10:55;;;;;;;4.03;2.70;;;;;;;27.74;61.79;99325.31;6319250;28;20049;-74
2023/07/20 08:13:56;;;;;;;4.88;2.80;;;;;;;28.11;61.89;99330.66;6306102;28;20082;-74
2023/07/20 08:16:59;;;;;;;6.18;3.28;;;;;;;28.06;62.71;99324.34;6319372;28;20488;-74
2023/07/20 08:20:00;;;;;;;6.95;2.65;;;;;;;28.39;61.10;99317.72;6307851;28;20074;-74
2023/07/20 08:23:00;;;;;;;6.32;2.65;;;;;;;28.36;62.70;99329.72;6317909;28;20052;-74
2023/07/20 08:26:03;;;;;;;7.70;3.00;;;;;;;28.59;61.91;99330.88;6316835;28;20123;-74
2023/07/20 08:29:04;;;;;;;3.38;2.38;;;;;;;28.93;60.88;99332.84;6312473;28;20048;-74
2023/07/20 08:32:06;;;;;;;7.22;3.00;;;;;;;28.76;59.17;99336.41;6310123;28;20112;-74
2023/07/20 08:35:07;;;;;;;3.88;2.65;;;;;;;28.36;59.21;99337.78;6314733;28;20756;-74
2023/07/20 08:38:13;;;;;;;4.00;2.58;;;;;;;28.89;58.79;99337.03;6316579;28;20503;-74
2023/07/20 08:41:14;;;;;;;3.88;2.55;;;;;;;28.95;58.67;99335.25;6319186;28;20036;-74
2023/07/20 08:44:15;;;;;;;;;;;;;;;29.08;56.69;99336.94;6316868;28;20040;-74
2023/07/20 08:47:16;;;;;;;2.87;2.43;;;;;;;28.54;61.30;99334.25;6320063;28;19982;-74
2023/07/20 08:50:20;;;;;;;3.42;2.45;;;;;;;29.10;58.62;99332.16;6315914;28;20044;-73
2023/07/20 08:53:24;;;;;;;5.03;2.85;;;;;;;29.16;58.07;99333.09;6318498;28;20052;-74
2023/07/20 08:56:26;;;;;;;3.88;2.38;;;;;;;29.07;56.39;99333.41;6312677;28;20044;-75
2023/07/20 08:59:28;;;;;;;4.25;2.60;;;;;;;29.47;56.68;99331.97;6307382;28;20495;-74
2023/07/20 09:02:31;;;;;;;3.63;2.50;;;;;;;29.61;57.28;99333.34;6306841;28;20052;-74
2023/07/20 09:05:32;;;;;;;3.97;2.55;;;;;;;29.68;56.31;99325.97;6311354;28;20059;-74
2023/07/20 09:08:33;;;;;;;4.82;2.30;;;;;;;29.96;54.71;99335.19;6310255;28;20048;-74
2023/07/20 09:11:34;;;;;;;4.10;2.10;;;;;;;30.17;54.80;99335.59;6305488;28;20174;-74
2023/07/20 09:14:37;;;;;;;7.90;2.28;;;;;;;30.22;53.71;99336.47;6313442;28;20052;-74
2023/07/20 09:17:38;;;;;;;3.42;2.40;;;;;;;30.34;52.92;99339.16;6316370;28;20393;-74
2023/07/20 09:20:39;;;;;;;4.80;2.42;;;;;;;30.35;53.54;99339.97;6303862;28;20064;-75
2023/07/20 09:23:42;;;;;;;7.35;2.63;;;;;;;30.48;53.17;99331.63;6304709;28;20045;-74
2023/07/20 09:26:50;;;;;;;3.63;2.13;;;;;;;30.20;52.79;99327.03;6304652;28;20047;-74
2023/07/20 09:29:51;;;;;;;3.45;2.20;;;;;;;30.51;53.33;99333.81;6309015;28;20091;-72
2023/07/20 09:32:53;;;;;;;2.92;1.90;;;;;;;30.77;53.26;99326.19;6300082;28;20102;-72
2023/07/20 09:35:54;;;;;;;3.47;2.00;;;;;;;30.97;52.25;99333.78;6318238;28;20293;-72
2023/07/20 09:38:55;;;;;;;3.80;2.22;;;;;;;30.99;50.63;99323.59;6305190;28;20048;-72
2023/07/20 09:42:01;;;;;;;4.43;2.03;;;;;;;31.28;50.73;99333.22;6321296;28;20048;-72
2023/07/20 09:45:02;;;;;;;2.92;1.98;;;;;;;31.40;51.05;99335.00;6312530;28;20436;-73
2023/07/20 09:48:05;;;;;;;2.85;1.80;;;;;;;30.58;51.54;99331.78;6297497;28;20447;-73
2023/07/20 09:51:07;;;;;;;6.00;2.00;;;;;;;30.91;51.24;99332.91;6297016;28;20052;-72
2023/07/20 09:54:08;;;;;;;3.88;1.95;;;;;;;31.12;48.85;99324.09;6297371;28;20063;-73
2023/07/20 09:57:10;;;;;;;3.63;2.03;;;;;;;31.12;49.32;99328.66;6296808;28;20381;-74
2023/07/20 10:00:15;;;;;;;3.38;2.08;;;;;;;31.44;49.25;99328.91;6296918;28;20084;-74
2023/07/20 10:03:20;;;;;;;5.40;2.17;;;;;;;31.81;47.23;99340.97;6297022;28;20048;-74
2023/07/20 10:06:24;;;;;;;2.60;1.80;;;;;;;30.60;47.84;99335.06;6299484;28;20106;-73
2023/07/20 10:09:26;;;;;;;3.03;1.95;;;;;;;31.32;47.43;99333.56;6297113;28;20048;-74
2023/07/20 10:12:28;;;;;;;3.78;2.00;;;;;;;31.66;48.77;99328.91;6295650;28;20505;-74
2023/07/20 10:15:42;;;;;;;5.20;2.17;;;;;;;31.08;48.84;99324.84;6297020;28;20063;-74
2023/07/20 10:18:49;;;;;;;4.28;1.92;;;;;;;31.88;47.61;99330.81;6295635;28;20045;-74
2023/07/20 10:21:56;;;;;;;3.20;2.10;;;;;;;31.68;48.56;99332.19;6295706;28;20059;-74
2023/07/20 10:24:59;;;;;;;4.10;1.92;;;;;;;31.48;46.74;99332.75;6295563;28;20048;-74
2023/07/20 10:28:00;;;;;;;3.38;1.90;;;;;;;31.90;45.96;99326.00;6296759;28;20071;-74
2023/07/20 10:31:04;;;;;;;2.42;1.85;;;;;;;31.95;45.89;99328.72;6295173;28;20068;-74
2023/07/20 10:34:05;;;;;;;2.92;1.90;;;;;;;31.14;42.90;99323.84;6295736;28;20045;-74
2023/07/20 10:50:00;;;;;;;2.90;2.03;;;;;;;31.74;41.36;99324.97;6343818;27;20117;-69
2023/07/20 10:53:19;;;;;;;2.47;1.53;;;;;;;31.30;41.56;99317.63;6342526;28;20454;-69
2023/07/20 10:56:22;;;;;;;2.42;1.77;;;;;;;32.12;42.49;99313.31;6342527;28;20272;-72
2023/07/20 10:59:22;;;;;;;3.03;1.95;;;;;;;32.90;44.69;99309.47;6342473;28;20139;-72
2023/07/20 11:02:24;;;;;;;;;;;;;;;32.07;39.79;99305.16;6344182;28;20066;-71
2023/07/20 11:05:39;;;;;;;4.93;2.17;;;;;;;32.15;41.41;99301.19;6342301;28;20010;-72
2023/07/20 11:08:45;;;;;;;2.78;2.05;;;;;;;31.66;41.12;99299.25;6344140;28;20127;-72
2023/07/20 11:11:48;;;;;;;2.78;1.70;;;;;;;31.43;40.77;99302.16;6342213;28;20051;-72
2023/07/20 11:14:56;;;;;;;3.25;1.90;;;;;;;32.20;38.74;99308.53;6332467;28;20197;-71
2023/07/20 11:18:12;;;;;;;1.73;1.40;;;;;;;32.47;35.97;99295.88;6315816;28;20040;-72
2023/07/20 11:21:15;;;;;;;2.28;1.45;;;;;;;32.56;37.63;99300.81;6316554;28;20480;-72
2023/07/20 11:24:16;;;;;;;2.95;1.98;;;;;;;32.63;37.25;99290.63;6329660;28;20118;-72
2023/07/20 11:27:19;;;;;;;;;;;;;;;33.16;35.17;99290.78;6337951;28;20483;-72
2023/07/20 11:30:20;;;;;;;5.30;1.67;;;;;;;33.26;35.77;99291.63;6338283;28;20383;-72
2023/07/20 11:33:20;;;;;;;;;;;;;;;33.32;34.71;99285.19;6325516;28;20055;-72
2023/07/20 11:36:21;;;;;;;2.30;1.53;;;;;;;33.16;33.73;99288.06;6316145;28;19920;-72
2023/07/20 11:39:24;;;;;;;;;;;;;;;32.58;35.85;99286.00;6331690;28;20447;-72
2023/07/20 11:42:25;;;;;;;2.80;1.90;;;;;;;32.84;36.74;99278.88;6330085;28;20011;-72
2023/07/20 11:45:27;;;;;;;;;;;;;;;32.31;36.07;99280.59;6333212;28;20521;-72
2023/07/20 11:48:28;;;;;;;3.35;1.80;;;;;;;32.98;38.83;99270.34;6317109;28;19966;-72
2023/07/20 11:51:29;;;;;;;;;;;;;;;33.38;36.16;99268.97;6299384;28;20127;-70
2023/07/20 11:54:30;;;;;;;;;;;;;;;33.71;35.81;99270.53;6300488;28;20368;-71
2023/07/20 11:57:31;;;;;;;4.20;1.67;;;;;;;33.51;37.86;99261.22;6306557;28;19924;-70
2023/07/20 12:00:32;;;;;;;;;;;;;;;33.01;33.54;99257.16;6299251;28;20052;-70
2023/07/20 12:03:36;;;;;;;2.67;1.55;;;;;;;33.74;36.26;99253.75;6298881;28;19921;-69
2023/07/20 12:06:38;;;;;;;2.17;1.40;;;;;;;33.62;34.33;99250.47;6299716;28;20117;-70
2023/07/20 12:09:38;;;;;;;;;;;;;;;33.64;33.26;99246.41;6300244;28;20496;-69
2023/07/20 12:12:43;;;;;;;1.87;1.23;;;;;;;34.11;33.99;99255.47;6298454;28;19920;-70
2023/07/20 12:15:43;;;;;;;5.45;1.13;;;;;;;32.92;30.69;99245.19;6332109;28;20503;-69
2023/07/20 12:18:44;;;;;;;;;;;;;;;32.14;31.90;99248.28;6301044;28;20122;-70
2023/07/20 12:21:47;;;;;;;6.93;1.27;;;;;;;32.49;32.94;99245.13;6304464;28;19924;-69
2023/07/20 12:24:52;;;;;;;2.03;1.30;;;;;;;32.94;31.82;99240.34;6323168;28;20127;-70
2023/07/20 12:27:53;;;;;;;1.27;1.13;;;;;;;33.63;33.00;99236.69;6314304;28;20070;-70
2023/07/20 12:30:56;;;;;;;;;;;;;;;32.86;33.55;99238.13;6308451;28;20483;-70
2023/07/20 12:33:58;;;;;;;1.80;1.40;;;;;;;32.55;34.25;99229.00;6322253;28;20015;-70
2023/07/20 12:36:59;;;;;;;3.10;1.67;;;;;;;32.13;34.50;99225.91;6324075;28;20055;-70
2023/07/20 12:40:00;;;;;;;;;;;;;;;32.26;34.66;99234.66;6324374;28;20353;-69
2023/07/20 12:43:00;;;;;;;2.53;1.23;;;;;;;31.87;32.44;99238.28;6324008;28;19919;-69
2023/07/20 12:46:03;;;;;;;;;;;;;;;31.45;33.58;99244.28;6324140;28;20391;-70
2023/07/20 12:49:04;;;;;;;3.75;1.40;;;;;;;32.42;34.30;99222.91;6323799;28;19936;-70
2023/07/20 12:52:05;;;;;;;;;;;;;;;31.73;32.70;99229.78;6317699;28;20072;-70
2023/07/20 12:55:11;;;;;;;3.40;1.17;;;;;;;31.84;32.71;99224.50;6312544;28;19920;-69
2023/07/20 12:58:13;;;;;;;2.78;1.30;;;;;;;31.98;34.01;99225.72;6323528;28;20505;-70
2023/07/20 13:01:13;;;;;;;1.70;1.17;;;;;;;32.82;33.46;99227.00;6322549;28;20055;-70
2023/07/20 13:04:16;;;;;;;;;;;;;;;33.01;31.99;99234.69;6323956;28;20052;-70
2023/07/20 13:07:32;;;;;;;3.22;1.23;;;;;;;32.88;32.04;99230.56;6310255;28;20007;-70
2023/07/20 13:10:33;;;;;;;4.95;1.10;;;;;;;32.01;32.27;99227.13;6297049;28;20049;-69
2023/07/20 13:13:33;;;;;;;;;;;;;;;32.08;30.18;99231.25;6302006;28;20131;-69
2023/07/20 13:16:35;;;;;;;3.00;0.90;;;;;;;31.96;30.57;99233.25;6297744;28;19966;-70
2023/07/20 13:19:38;;;;;;;1.38;0.90;;;;;;;32.36;31.76;99240.13;6304490;28;20067;-69
2023/07/20 13:22:39;;;;;;;1.63;0.90;;;;;;;32.62;33.13;99243.91;6318218;28;20100;-70
2023/07/20 13:25:40;;;;;;;2.00;1.17;;;;;;;32.27;31.80;99247.09;6306523;28;20135;-70
2023/07/20 13:28:40;;;;;;;;;;;;;;;31.64;28.36;99244.75;6310324;28;20050;-69
2023/07/20 13:31:41;;;;;;;3.63;1.00;;;;;;;31.46;29.04;99253.16;6297590;28;19920;-69
2023/07/20 13:34:44;;;;;;;0.95;0.88;;;;;;;31.21;31.22;99257.13;6297752;28;20546;-70
2023/07/20 13:37:44;;;;;;;0.98;0.90;;;;;;;31.44;31.41;99266.06;6293952;28;20044;-70
2023/07/20 13:40:45;;;;;;;1.48;0.80;;;;;;;31.62;30.86;99265.78;6297076;28;20087;-70
2023/07/20 13:43:46;;;;;;;2.47;1.13;;;;;;;31.63;30.82;99267.41;6301306;28;20044;-69
2023/07/20 13:46:47;;;;;;;3.42;1.10;;;;;;;31.35;32.98;99268.38;6320514;28;20044;-70
2023/07/20 13:49:48;;;;;;;4.22;1.30;;;;;;;31.52;33.41;99266.44;6321518;28;20178;-69
2023/07/20 13:52:49;;;;;;;5.07;1.08;;;;;;;31.29;30.68;99274.75;6321043;28;20052;-69
2023/07/20 13:55:50;;;;;;;1.75;1.10;;;;;;;30.99;30.92;99272.41;6322207;28;20048;-69
2023/07/20 13:58:50;;;;;;;1.00;0.88;;;;;;;30.97;31.02;99299.63;6309507;28;20055;-69
2023/07/20 14:01:53;;;;;;;2.00;1.20;;;;;;;30.78;43.60;99304.38;6308841;28;20054;-71
2023/07/20 14:04:55;;;;;;;3.40;1.58;;;;;;;30.14;45.06;99315.34;6295953;28;20049;-70
2023/07/20 14:07:56;;;;;;;1.55;1.20;;;;;;;29.51;47.55;99309.75;6315931;28;20051;-69
2023/07/20 14:10:57;;;;;;;2.25;1.20;;;;;;;29.55;48.20;99310.09;6308600;28;20067;-72
2023/07/20 14:13:58;;;;;;;3.45;1.27;;;;;;;29.74;48.13;99313.47;6307854;28;20040;-71
2023/07/20 14:16:58;;;;;;;;;;;;;;;28.96;49.31;99328.06;6305708;28;20044;-71
2023/07/20 14:19:59;;;;;;;1.57;1.10;;;;;;;28.40;50.37;99330.09;6297848;28;19920;-71
2023/07/20 14:23:04;;;;;;;1.83;1.17;;;;;;;28.43;53.31;99330.44;6296664;28;20056;-71
2023/07/20 14:26:05;;;;;;;1.60;0.85;;;;;;;28.57;49.20;99341.03;6297862;28;20091;-71
2023/07/20 14:29:08;;;;;;;1.15;0.75;;;;;;;28.33;48.90;99328.31;6296852;28;20537;-71
2023/07/20 14:32:09;;;;;;;7.55;0.85;;;;;;;28.48;48.50;99332.47;6316286;28;20447;-71
2023/07/20 14:35:09;;;;;;;2.05;0.90;;;;;;;28.12;49.45;99337.66;6321243;28;20052;-71
2023/07/20 14:38:10;;;;;;;2.53;1.15;;;;;;;28.07;49.00;99337.53;6317745;28;20040;-71
2023/07/20 14:41:12;;;;;;;0.93;0.65;;;;;;;28.34;50.30;99324.59;6321360;28;20477;-71
2023/07/20 14:44:12;;;;;;;1.17;0.88;;;;;;;28.30;51.07;99322.59;6331770;28;20051;-71
2023/07/20 14:47:13;;;;;;;0.85;0.80;;;;;;;28.26;50.01;99316.03;6306661;28;20131;-71